sensor_id;sensor_type;location;lat;lon;timestamp;temperature;humidity
40732;DHT22;26420;52.256;9.096;2022-09-09T00:00:05;16.10;99.90
40732;DHT22;26420;52.256;9.096;2022-09-09T00:10:45;16.20;99.90
40732;DHT22;26420;52.256;9.096;2022-09-09T00:21:11;16.20;99.90
40732;DHT22;26420;52.256;9.096;2022-09-09T00:26:16;16.20;99.90
40732;DHT22;26420;52.256;9.096;2022-09-09T00:31:23;16.20;99.90
40732;DHT22;26420;52.256;9.096;2022-09-09T00:36:27;16.00;99.90
40732;DHT22;26420;52.256;9.096;2022-09-09T00:57:38;16.10;99.90
40732;DHT22;26420;52.256;9.096;2022-09-09T01:03:07;16.10;99.90
40732;DHT22;26420;52.256;9.096;2022-09-09T01:14:05;16.10;99.90
40732;DHT22;26420;52.256;9.096;2022-09-09T01:19:20;16.20;99.90
40732;DHT22;26420;52.256;9.096;2022-09-09T01:25:01;16.10;99.90
40732;DHT22;26420;52.256;9.096;2022-09-09T01:30:28;16.10;99.90
40732;DHT22;26420;52.256;9.096;2022-09-09T01:40:58;16.10;99.90
40732;DHT22;26420;52.256;9.096;2022-09-09T01:46:09;16.00;99.90
40732;DHT22;26420;52.256;9.096;2022-09-09T01:51:13;15.90;99.90
40732;DHT22;26420;52.256;9.096;2022-09-09T01:56:19;16.00;99.90
40732;DHT22;26420;52.256;9.096;2022-09-09T02:01:43;16.00;99.90
40732;DHT22;26420;52.256;9.096;2022-09-09T02:06:48;16.00;99.90
40732;DHT22;26420;52.256;9.096;2022-09-09T02:12:07;16.00;99.90
40732;DHT22;26420;52.256;9.096;2022-09-09T02:17:25;16.00;99.90
40732;DHT22;26420;52.256;9.096;2022-09-09T02:22:39;16.00;99.90
40732;DHT22;26420;52.256;9.096;2022-09-09T02:27:45;16.00;99.90
40732;DHT22;26420;52.256;9.096;2022-09-09T02:32:51;16.00;99.90
40732;DHT22;26420;52.256;9.096;2022-09-09T02:37:57;16.10;99.90
40732;DHT22;26420;52.256;9.096;2022-09-09T02:43:01;16.00;99.90
40732;DHT22;26420;52.256;9.096;2022-09-09T02:53:40;16.10;99.90
40732;DHT22;26420;52.256;9.096;2022-09-09T02:58:44;16.10;99.90
40732;DHT22;26420;52.256;9.096;2022-09-09T03:03:46;16.10;99.90
40732;DHT22;26420;52.256;9.096;2022-09-09T03:08:50;16.20;99.90
40732;DHT22;26420;52.256;9.096;2022-09-09T03:13:57;16.20;99.90
40732;DHT22;26420;52.256;9.096;2022-09-09T03:19:01;16.20;99.90
40732;DHT22;26420;52.256;9.096;2022-09-09T03:24:03;16.20;99.90
40732;DHT22;26420;52.256;9.096;2022-09-09T03:29:05;16.10;99.90
40732;DHT22;26420;52.256;9.096;2022-09-09T03:34:10;16.10;99.90
40732;DHT22;26420;52.256;9.096;2022-09-09T03:39:12;16.10;99.90
40732;DHT22;26420;52.256;9.096;2022-09-09T03:44:16;16.10;99.90
40732;DHT22;26420;52.256;9.096;2022-09-09T03:49:18;16.10;99.90
40732;DHT22;26420;52.256;9.096;2022-09-09T03:54:23;16.00;99.90
40732;DHT22;26420;52.256;9.096;2022-09-09T03:59:25;16.10;99.90
40732;DHT22;26420;52.256;9.096;2022-09-09T04:04:27;16.00;99.90
40732;DHT22;26420;52.256;9.096;2022-09-09T04:09:29;16.10;99.90
40732;DHT22;26420;52.256;9.096;2022-09-09T04:14:31;16.00;99.90
40732;DHT22;26420;52.256;9.096;2022-09-09T04:19:33;16.00;99.90
40732;DHT22;26420;52.256;9.096;2022-09-09T04:24:35;16.10;99.90
40732;DHT22;26420;52.256;9.096;2022-09-09T04:29:37;16.10;99.90
40732;DHT22;26420;52.256;9.096;2022-09-09T04:34:39;16.10;99.90
40732;DHT22;26420;52.256;9.096;2022-09-09T04:39:43;16.00;99.90
40732;DHT22;26420;52.256;9.096;2022-09-09T04:44:45;16.00;99.90
40732;DHT22;26420;52.256;9.096;2022-09-09T04:49:47;16.00;99.90
40732;DHT22;26420;52.256;9.096;2022-09-09T04:54:49;16.00;99.90
40732;DHT22;26420;52.256;9.096;2022-09-09T04:59:51;16.10;99.90
40732;DHT22;26420;52.256;9.096;2022-09-09T05:04:52;16.00;99.90
40732;DHT22;26420;52.256;9.096;2022-09-09T05:09:54;16.00;99.90
40732;DHT22;26420;52.256;9.096;2022-09-09T05:14:56;16.00;99.90
40732;DHT22;26420;52.256;9.096;2022-09-09T05:19:58;16.00;99.90
40732;DHT22;26420;52.256;9.096;2022-09-09T05:25:00;16.10;99.90
40732;DHT22;26420;52.256;9.096;2022-09-09T05:30:03;16.10;99.90
40732;DHT22;26420;52.256;9.096;2022-09-09T05:35:06;16.30;99.90
40732;DHT22;26420;52.256;9.096;2022-09-09T05:40:08;16.30;99.90
40732;DHT22;26420;52.256;9.096;2022-09-09T05:45:12;16.30;99.90
40732;DHT22;26420;52.256;9.096;2022-09-09T05:50:14;16.30;99.90
40732;DHT22;26420;52.256;9.096;2022-09-09T05:55:16;16.20;99.90
40732;DHT22;26420;52.256;9.096;2022-09-09T06:00:19;16.10;99.90
40732;DHT22;26420;52.256;9.096;2022-09-09T06:05:23;16.10;99.90
40732;DHT22;26420;52.256;9.096;2022-09-09T06:10:25;16.20;99.90
40732;DHT22;26420;52.256;9.096;2022-09-09T06:15:27;16.20;99.90
40732;DHT22;26420;52.256;9.096;2022-09-09T06:20:32;16.20;99.90
40732;DHT22;26420;52.256;9.096;2022-09-09T06:25:33;16.30;99.90
40732;DHT22;26420;52.256;9.096;2022-09-09T06:30:36;16.40;99.90
40732;DHT22;26420;52.256;9.096;2022-09-09T06:35:38;16.30;99.90
40732;DHT22;26420;52.256;9.096;2022-09-09T06:40:39;16.50;99.90
40732;DHT22;26420;52.256;9.096;2022-09-09T06:45:42;16.70;99.90
40732;DHT22;26420;52.256;9.096;2022-09-09T06:50:44;16.90;99.90
40732;DHT22;26420;52.256;9.096;2022-09-09T06:55:46;17.10;99.90
40732;DHT22;26420;52.256;9.096;2022-09-09T07:00:48;17.30;99.90
40732;DHT22;26420;52.256;9.096;2022-09-09T07:05:55;17.50;99.90
40732;DHT22;26420;52.256;9.096;2022-09-09T07:11:04;17.60;99.90
40732;DHT22;26420;52.256;9.096;2022-09-09T07:16:18;17.80;99.90
40732;DHT22;26420;52.256;9.096;2022-09-09T07:21:20;17.80;99.90
40732;DHT22;26420;52.256;9.096;2022-09-09T07:26:26;17.80;99.90
40732;DHT22;26420;52.256;9.096;2022-09-09T07:31:33;17.90;99.90
40732;DHT22;26420;52.256;9.096;2022-09-09T07:36:38;18.10;99.90
40732;DHT22;26420;52.256;9.096;2022-09-09T07:41:44;18.20;99.90
40732;DHT22;26420;52.256;9.096;2022-09-09T07:46:48;18.40;99.90
40732;DHT22;26420;52.256;9.096;2022-09-09T07:51:54;18.50;99.90
40732;DHT22;26420;52.256;9.096;2022-09-09T07:56:56;18.70;99.90
40732;DHT22;26420;52.256;9.096;2022-09-09T08:02:01;18.60;99.90
40732;DHT22;26420;52.256;9.096;2022-09-09T08:07:05;18.80;99.90
40732;DHT22;26420;52.256;9.096;2022-09-09T08:12:15;18.90;99.90
40732;DHT22;26420;52.256;9.096;2022-09-09T08:17:17;19.10;99.90
40732;DHT22;26420;52.256;9.096;2022-09-09T08:22:19;19.20;99.90
40732;DHT22;26420;52.256;9.096;2022-09-09T08:27:21;19.40;99.90
40732;DHT22;26420;52.256;9.096;2022-09-09T08:32:23;19.50;99.90
40732;DHT22;26420;52.256;9.096;2022-09-09T08:37:24;19.40;99.90
40732;DHT22;26420;52.256;9.096;2022-09-09T08:42:31;19.60;99.90
40732;DHT22;26420;52.256;9.096;2022-09-09T08:58:18;19.40;99.90
40732;DHT22;26420;52.256;9.096;2022-09-09T09:03:28;19.30;99.90
40732;DHT22;26420;52.256;9.096;2022-09-09T09:08:55;19.50;99.90
40732;DHT22;26420;52.256;9.096;2022-09-09T09:14:20;19.70;99.90
40732;DHT22;26420;52.256;9.096;2022-09-09T09:19:28;20.10;99.90
40732;DHT22;26420;52.256;9.096;2022-09-09T09:24:53;20.50;99.90
40732;DHT22;26420;52.256;9.096;2022-09-09T09:30:00;20.70;99.90
40732;DHT22;26420;52.256;9.096;2022-09-09T09:35:23;20.90;99.90
40732;DHT22;26420;52.256;9.096;2022-09-09T09:40:25;21.30;99.90
40732;DHT22;26420;52.256;9.096;2022-09-09T09:45:35;21.10;99.90
40732;DHT22;26420;52.256;9.096;2022-09-09T09:50:54;21.20;99.90
40732;DHT22;26420;52.256;9.096;2022-09-09T09:56:01;20.70;99.90
40732;DHT22;26420;52.256;9.096;2022-09-09T10:01:04;20.50;99.90
40732;DHT22;26420;52.256;9.096;2022-09-09T10:06:06;20.00;99.90
40732;DHT22;26420;52.256;9.096;2022-09-09T10:16:36;19.90;99.90
40732;DHT22;26420;52.256;9.096;2022-09-09T10:37:58;21.10;99.90
40732;DHT22;26420;52.256;9.096;2022-09-09T10:59:24;21.00;99.90
40732;DHT22;26420;52.256;9.096;2022-09-09T11:04:33;20.50;99.90
40732;DHT22;26420;52.256;9.096;2022-09-09T11:09:45;20.30;99.90
40732;DHT22;26420;52.256;9.096;2022-09-09T11:14:54;19.90;99.90
40732;DHT22;26420;52.256;9.096;2022-09-09T11:19:57;20.10;99.90
40732;DHT22;26420;52.256;9.096;2022-09-09T11:25:20;20.80;99.90
40732;DHT22;26420;52.256;9.096;2022-09-09T11:30:34;21.70;99.90
40732;DHT22;26420;52.256;9.096;2022-09-09T11:36:35;26.50;99.90
40732;DHT22;26420;52.256;9.096;2022-09-09T11:41:40;29.90;99.90
40732;DHT22;26420;52.256;9.096;2022-09-09T11:46:42;34.20;91.00
40732;DHT22;26420;52.256;9.096;2022-09-09T11:51:45;34.90;81.80
40732;DHT22;26420;52.256;9.096;2022-09-09T11:56:46;31.40;86.60
40732;DHT22;26420;52.256;9.096;2022-09-09T12:02:18;28.50;91.90
40732;DHT22;26420;52.256;9.096;2022-09-09T12:07:41;26.50;95.00
40732;DHT22;26420;52.256;9.096;2022-09-09T12:12:45;25.20;97.20
40732;DHT22;26420;52.256;9.096;2022-09-09T12:17:52;23.90;96.90
40732;DHT22;26420;52.256;9.096;2022-09-09T12:23:30;24.50;97.30
40732;DHT22;26420;52.256;9.096;2022-09-09T12:28:42;23.80;96.80
40732;DHT22;26420;52.256;9.096;2022-09-09T12:33:46;23.40;98.20
40732;DHT22;26420;52.256;9.096;2022-09-09T12:38:48;24.40;96.40
40732;DHT22;26420;52.256;9.096;2022-09-09T12:44:08;24.60;94.90
40732;DHT22;26420;52.256;9.096;2022-09-09T12:54:37;23.80;96.90
40732;DHT22;26420;52.256;9.096;2022-09-09T12:59:41;23.60;95.80
40732;DHT22;26420;52.256;9.096;2022-09-09T13:04:43;23.20;96.30
40732;DHT22;26420;52.256;9.096;2022-09-09T13:09:47;22.50;96.60
40732;DHT22;26420;52.256;9.096;2022-09-09T13:14:52;22.20;96.60
40732;DHT22;26420;52.256;9.096;2022-09-09T13:19:55;22.70;96.30
40732;DHT22;26420;52.256;9.096;2022-09-09T13:25:05;23.70;95.20
40732;DHT22;26420;52.256;9.096;2022-09-09T13:30:29;23.70;95.50
40732;DHT22;26420;52.256;9.096;2022-09-09T13:35:31;23.60;93.10
40732;DHT22;26420;52.256;9.096;2022-09-09T13:40:34;23.30;93.00
40732;DHT22;26420;52.256;9.096;2022-09-09T13:45:36;23.50;94.10
40732;DHT22;26420;52.256;9.096;2022-09-09T13:50:38;23.40;93.00
40732;DHT22;26420;52.256;9.096;2022-09-09T13:55:39;23.10;93.50
40732;DHT22;26420;52.256;9.096;2022-09-09T14:00:41;22.80;93.90
40732;DHT22;26420;52.256;9.096;2022-09-09T14:05:45;22.60;94.50
40732;DHT22;26420;52.256;9.096;2022-09-09T14:10:48;22.60;95.10
40732;DHT22;26420;52.256;9.096;2022-09-09T14:15:49;22.60;95.40
40732;DHT22;26420;52.256;9.096;2022-09-09T14:20:51;22.70;95.50
40732;DHT22;26420;52.256;9.096;2022-09-09T14:25:53;23.30;95.60
40732;DHT22;26420;52.256;9.096;2022-09-09T14:30:55;23.60;94.50
40732;DHT22;26420;52.256;9.096;2022-09-09T14:36:01;23.10;96.00
40732;DHT22;26420;52.256;9.096;2022-09-09T14:41:04;22.60;96.90
40732;DHT22;26420;52.256;9.096;2022-09-09T14:46:11;22.70;95.80
40732;DHT22;26420;52.256;9.096;2022-09-09T14:51:15;22.50;94.20
40732;DHT22;26420;52.256;9.096;2022-09-09T14:56:19;22.60;94.10
40732;DHT22;26420;52.256;9.096;2022-09-09T15:01:23;23.00;93.60
40732;DHT22;26420;52.256;9.096;2022-09-09T15:06:28;23.30;93.00
40732;DHT22;26420;52.256;9.096;2022-09-09T15:11:33;23.80;92.70
40732;DHT22;26420;52.256;9.096;2022-09-09T15:16:39;24.50;92.30
40732;DHT22;26420;52.256;9.096;2022-09-09T15:21:41;25.20;91.70
40732;DHT22;26420;52.256;9.096;2022-09-09T15:26:43;24.90;91.60
40732;DHT22;26420;52.256;9.096;2022-09-09T15:31:45;25.40;92.10
40732;DHT22;26420;52.256;9.096;2022-09-09T15:36:47;25.10;91.40
40732;DHT22;26420;52.256;9.096;2022-09-09T15:41:49;25.40;91.30
40732;DHT22;26420;52.256;9.096;2022-09-09T15:46:52;24.80;91.50
40732;DHT22;26420;52.256;9.096;2022-09-09T15:51:58;23.60;93.10
40732;DHT22;26420;52.256;9.096;2022-09-09T15:57:06;22.70;93.70
40732;DHT22;26420;52.256;9.096;2022-09-09T16:02:09;22.40;94.60
40732;DHT22;26420;52.256;9.096;2022-09-09T16:07:11;22.30;94.90
40732;DHT22;26420;52.256;9.096;2022-09-09T16:12:12;22.20;95.30
40732;DHT22;26420;52.256;9.096;2022-09-09T16:17:15;22.00;95.70
40732;DHT22;26420;52.256;9.096;2022-09-09T16:22:17;22.10;95.90
40732;DHT22;26420;52.256;9.096;2022-09-09T16:27:19;22.40;96.10
40732;DHT22;26420;52.256;9.096;2022-09-09T16:32:21;22.60;98.20
40732;DHT22;26420;52.256;9.096;2022-09-09T16:37:23;22.40;99.90
40732;DHT22;26420;52.256;9.096;2022-09-09T16:42:25;22.30;99.40
40732;DHT22;26420;52.256;9.096;2022-09-09T16:47:27;22.10;99.90
40732;DHT22;26420;52.256;9.096;2022-09-09T16:52:29;22.00;99.90
40732;DHT22;26420;52.256;9.096;2022-09-09T16:57:30;21.90;99.90
40732;DHT22;26420;52.256;9.096;2022-09-09T17:02:32;21.70;99.90
40732;DHT22;26420;52.256;9.096;2022-09-09T17:07:34;21.30;99.90
40732;DHT22;26420;52.256;9.096;2022-09-09T17:12:36;21.00;99.90
40732;DHT22;26420;52.256;9.096;2022-09-09T17:17:42;20.50;99.90
40732;DHT22;26420;52.256;9.096;2022-09-09T17:22:46;20.40;99.90
40732;DHT22;26420;52.256;9.096;2022-09-09T17:27:48;20.30;99.90
40732;DHT22;26420;52.256;9.096;2022-09-09T17:32:49;20.20;99.90
40732;DHT22;26420;52.256;9.096;2022-09-09T17:37:52;19.80;99.90
40732;DHT22;26420;52.256;9.096;2022-09-09T17:42:56;19.30;99.90
40732;DHT22;26420;52.256;9.096;2022-09-09T17:47:57;18.90;99.90
40732;DHT22;26420;52.256;9.096;2022-09-09T17:52:59;18.80;99.90
40732;DHT22;26420;52.256;9.096;2022-09-09T17:58:02;18.80;99.90
40732;DHT22;26420;52.256;9.096;2022-09-09T18:03:04;18.70;99.90
40732;DHT22;26420;52.256;9.096;2022-09-09T18:08:06;18.40;99.90
40732;DHT22;26420;52.256;9.096;2022-09-09T18:13:07;18.40;99.90
40732;DHT22;26420;52.256;9.096;2022-09-09T18:18:10;18.20;99.90
40732;DHT22;26420;52.256;9.096;2022-09-09T18:23:12;18.00;99.90
40732;DHT22;26420;52.256;9.096;2022-09-09T18:28:14;17.90;99.90
40732;DHT22;26420;52.256;9.096;2022-09-09T18:33:15;17.90;99.90
40732;DHT22;26420;52.256;9.096;2022-09-09T18:38:17;17.80;99.90
40732;DHT22;26420;52.256;9.096;2022-09-09T18:43:19;17.60;99.90
40732;DHT22;26420;52.256;9.096;2022-09-09T18:48:20;17.60;99.90
40732;DHT22;26420;52.256;9.096;2022-09-09T18:53:22;17.60;99.90
40732;DHT22;26420;52.256;9.096;2022-09-09T18:58:23;17.60;99.90
40732;DHT22;26420;52.256;9.096;2022-09-09T19:03:27;17.50;99.90
40732;DHT22;26420;52.256;9.096;2022-09-09T19:08:29;17.30;99.90
40732;DHT22;26420;52.256;9.096;2022-09-09T19:13:32;17.20;99.90
40732;DHT22;26420;52.256;9.096;2022-09-09T19:18:34;17.30;99.90
40732;DHT22;26420;52.256;9.096;2022-09-09T19:23:40;17.30;99.90
40732;DHT22;26420;52.256;9.096;2022-09-09T19:28:44;17.30;99.90
40732;DHT22;26420;52.256;9.096;2022-09-09T19:33:51;17.20;99.90
40732;DHT22;26420;52.256;9.096;2022-09-09T19:38:54;17.30;99.90
40732;DHT22;26420;52.256;9.096;2022-09-09T19:44:01;17.20;99.90
40732;DHT22;26420;52.256;9.096;2022-09-09T19:49:04;17.20;99.90
40732;DHT22;26420;52.256;9.096;2022-09-09T19:54:11;17.10;99.90
40732;DHT22;26420;52.256;9.096;2022-09-09T19:59:14;17.00;99.90
40732;DHT22;26420;52.256;9.096;2022-09-09T20:04:16;17.10;99.90
40732;DHT22;26420;52.256;9.096;2022-09-09T20:09:19;17.00;99.90
40732;DHT22;26420;52.256;9.096;2022-09-09T20:14:20;16.90;99.90
40732;DHT22;26420;52.256;9.096;2022-09-09T20:19:22;16.90;99.90
40732;DHT22;26420;52.256;9.096;2022-09-09T20:24:24;16.90;99.90
40732;DHT22;26420;52.256;9.096;2022-09-09T20:29:26;16.90;99.90
40732;DHT22;26420;52.256;9.096;2022-09-09T20:34:28;16.90;99.90
40732;DHT22;26420;52.256;9.096;2022-09-09T20:39:30;16.80;99.90
40732;DHT22;26420;52.256;9.096;2022-09-09T20:44:32;16.80;99.90
40732;DHT22;26420;52.256;9.096;2022-09-09T20:49:34;16.70;99.90
40732;DHT22;26420;52.256;9.096;2022-09-09T20:54:35;16.70;99.90
40732;DHT22;26420;52.256;9.096;2022-09-09T20:59:39;16.60;99.90
40732;DHT22;26420;52.256;9.096;2022-09-09T21:04:41;16.60;99.90
40732;DHT22;26420;52.256;9.096;2022-09-09T21:09:45;16.60;99.90
40732;DHT22;26420;52.256;9.096;2022-09-09T21:14:46;16.60;99.90
40732;DHT22;26420;52.256;9.096;2022-09-09T21:19:48;16.60;99.90
40732;DHT22;26420;52.256;9.096;2022-09-09T21:24:50;16.60;99.90
40732;DHT22;26420;52.256;9.096;2022-09-09T21:29:51;16.60;99.90
40732;DHT22;26420;52.256;9.096;2022-09-09T21:34:53;16.50;99.90
40732;DHT22;26420;52.256;9.096;2022-09-09T21:39:55;16.60;99.90
40732;DHT22;26420;52.256;9.096;2022-09-09T21:44:56;16.60;99.90
40732;DHT22;26420;52.256;9.096;2022-09-09T21:49:58;16.60;99.90
40732;DHT22;26420;52.256;9.096;2022-09-09T21:55:01;16.70;99.90
40732;DHT22;26420;52.256;9.096;2022-09-09T22:00:07;16.70;99.90
40732;DHT22;26420;52.256;9.096;2022-09-09T22:05:13;16.60;99.90
40732;DHT22;26420;52.256;9.096;2022-09-09T22:10:15;16.60;99.90
40732;DHT22;26420;52.256;9.096;2022-09-09T22:15:17;16.70;99.90
40732;DHT22;26420;52.256;9.096;2022-09-09T22:20:19;16.70;99.90
40732;DHT22;26420;52.256;9.096;2022-09-09T22:25:21;16.60;99.90
40732;DHT22;26420;52.256;9.096;2022-09-09T22:30:23;16.60;99.90
40732;DHT22;26420;52.256;9.096;2022-09-09T22:35:26;16.60;99.90
40732;DHT22;26420;52.256;9.096;2022-09-09T22:40:27;16.50;99.90
40732;DHT22;26420;52.256;9.096;2022-09-09T22:45:30;16.60;99.90
40732;DHT22;26420;52.256;9.096;2022-09-09T22:50:34;16.50;99.90
40732;DHT22;26420;52.256;9.096;2022-09-09T22:55:42;16.50;99.90
40732;DHT22;26420;52.256;9.096;2022-09-09T23:00:55;16.60;99.90
40732;DHT22;26420;52.256;9.096;2022-09-09T23:06:00;16.50;99.90
40732;DHT22;26420;52.256;9.096;2022-09-09T23:11:05;16.60;99.90
40732;DHT22;26420;52.256;9.096;2022-09-09T23:16:11;16.60;99.90
40732;DHT22;26420;52.256;9.096;2022-09-09T23:21:14;16.60;99.90
40732;DHT22;26420;52.256;9.096;2022-09-09T23:26:16;16.60;99.90
40732;DHT22;26420;52.256;9.096;2022-09-09T23:31:22;16.60;99.90
40732;DHT22;26420;52.256;9.096;2022-09-09T23:36:26;16.60;99.90
40732;DHT22;26420;52.256;9.096;2022-09-09T23:41:31;16.60;99.90
40732;DHT22;26420;52.256;9.096;2022-09-09T23:46:34;16.50;99.90
40732;DHT22;26420;52.256;9.096;2022-09-09T23:51:36;16.60;99.90
40732;DHT22;26420;52.256;9.096;2022-09-09T23:56:39;16.60;99.90
